Time;durP1;ratioP1;P1;durP2;ratioP2;P2;SDS_P1;SDS_P2;PMS_P1;PMS_P2;Temp;Humidity;BMP_temperature;BMP_pressure;BME280_temperature;BME280_humidity;BME280_pressure;Samples;Min_cycle;Max_cycle;Signal;HPM_P1;HPM_P2
2021/12/16 05:01:35;;;;;;;22.87;12.20;;;5.60;99.90;;;;;;5467482;23;20499;-77
2021/12/16 05:04:02;;;;;;;23.63;13.07;;;5.60;99.90;;;;;;4974611;28;20558;-77
2021/12/16 05:06:29;;;;;;;25.97;13.23;;;5.60;99.90;;;;;;4974332;28;20539;-77
2021/12/16 05:08:56;;;;;;;22.73;11.80;;;5.60;99.90;;;;;;4973972;28;20450;-77
2021/12/16 05:11:23;;;;;;;26.50;13.97;;;5.70;99.90;;;;;;4965063;28;20477;-77
2021/12/16 05:13:50;;;;;;;25.00;13.23;;;5.70;99.90;;;;;;4955692;29;20929;-78
2021/12/16 05:16:17;;;;;;;26.93;13.87;;;5.70;99.90;;;;;;4955800;28;20512;-78
2021/12/16 05:18:46;;;;;;;18.90;11.97;;;5.70;99.90;;;;;;4955783;29;20453;-78
2021/12/16 05:21:38;;;;;;;20.93;11.23;;;5.70;99.90;;;;;;4956176;28;20563;-78
2021/12/16 05:24:25;;;;;;;22.77;13.13;;;5.70;99.90;;;;;;4956256;29;20449;-78
2021/12/16 05:26:54;;;;;;;25.60;12.97;;;5.70;99.90;;;;;;4955765;28;20459;-78
2021/12/16 05:29:21;;;;;;;21.00;12.10;;;5.80;99.90;;;;;;4955295;28;20543;-78
2021/12/16 05:31:48;;;;;;;22.93;12.43;;;5.80;99.90;;;;;;4954432;28;20537;-78
2021/12/16 05:34:17;;;;;;;26.70;14.80;;;5.80;99.90;;;;;;4955580;29;20484;-77
2021/12/16 05:36:44;;;;;;;25.80;13.83;;;5.70;99.90;;;;;;4955242;29;20926;-70
2021/12/16 05:39:14;;;;;;;22.83;12.77;;;5.70;99.90;;;;;;4954198;29;20458;-69
2021/12/16 05:41:41;;;;;;;25.83;14.07;;;5.70;99.90;;;;;;4954722;28;20564;-76
2021/12/16 05:44:09;;;;;;;24.63;13.60;;;5.60;99.90;;;;;;4957639;29;20549;-76
2021/12/16 05:46:38;;;;;;;20.80;12.77;;;5.70;99.90;;;;;;4958032;29;20696;-76
2021/12/16 05:49:08;;;;;;;23.43;12.73;;;5.60;99.90;;;;;;4956848;29;20461;-76
2021/12/16 05:51:38;;;;;;;22.90;12.47;;;5.60;99.90;;;;;;4956515;28;20563;-76
2021/12/16 05:54:07;;;;;;;20.07;12.13;;;5.60;99.90;;;;;;4957310;28;20457;-76
2021/12/16 05:56:36;;;;;;;24.70;13.70;;;5.60;99.90;;;;;;4956396;29;21028;-76
2021/12/16 05:59:04;;;;;;;22.37;12.07;;;5.60;99.90;;;;;;4955119;29;20896;-76
2021/12/16 06:01:35;;;;;;;21.73;11.77;;;5.60;99.90;;;;;;4956545;28;20564;-76
2021/12/16 06:04:03;;;;;;;22.93;12.57;;;5.60;99.90;;;;;;4957260;29;20544;-75
2021/12/16 06:06:30;;;;;;;22.87;12.07;;;5.60;99.90;;;;;;4955737;29;20500;-76
2021/12/16 06:09:00;;;;;;;27.63;13.60;;;5.60;99.90;;;;;;4958008;28;20464;-77
2021/12/16 06:11:31;;;;;;;29.60;13.03;;;5.60;99.90;;;;;;4956424;29;20472;-77
2021/12/16 06:14:11;;;;;;;20.20;11.70;;;5.60;99.90;;;;;;4956224;28;20472;-77
2021/12/16 06:27:56;;;;;;;24.07;12.27;;;5.70;99.90;;;;;;4956639;29;20922;-76
2021/12/16 06:30:27;;;;;;;24.60;14.30;;;5.70;99.90;;;;;;4954388;29;20471;-77
2021/12/16 06:32:55;;;;;;;24.30;13.30;;;5.70;99.90;;;;;;4955194;29;20524;-77
2021/12/16 06:35:24;;;;;;;24.97;12.87;;;5.70;99.90;;;;;;4956734;29;20535;-77
2021/12/16 06:37:51;;;;;;;21.30;12.87;;;5.70;99.90;;;;;;4956242;29;20890;-77
2021/12/16 06:40:21;;;;;;;23.13;12.93;;;5.70;99.90;;;;;;4955896;29;20539;-77
2021/12/16 06:42:49;;;;;;;21.23;12.83;;;5.70;99.90;;;;;;4958532;28;20495;-77
2021/12/16 06:45:21;;;;;;;25.63;13.10;;;5.70;99.90;;;;;;4961755;28;21024;-77
2021/12/16 06:47:53;;;;;;;23.13;13.37;;;5.70;99.90;;;;;;4962062;29;20593;-77
2021/12/16 06:50:29;;;;;;;23.97;13.90;;;5.80;99.90;;;;;;4955495;28;20869;-77
2021/12/16 06:53:00;;;;;;;24.87;14.30;;;5.80;99.90;;;;;;4953385;29;20700;-76
2021/12/16 06:55:36;;;;;;;21.50;13.00;;;5.80;99.90;;;;;;4943172;29;21008;-77
2021/12/16 06:58:13;;;;;;;24.00;13.07;;;5.80;99.90;;;;;;4942396;29;20492;-77
2021/12/16 07:00:45;;;;;;;25.47;14.53;;;5.80;99.90;;;;;;4942896;29;21069;-77
2021/12/16 07:03:20;;;;;;;25.20;14.67;;;5.80;99.90;;;;;;4942713;29;20457;-77
2021/12/16 07:05:52;;;;;;;24.00;13.83;;;5.80;99.90;;;;;;4953779;29;20523;-77
2021/12/16 07:08:22;;;;;;;24.13;13.60;;;5.80;99.90;;;;;;4953457;28;20444;-77
2021/12/16 07:10:53;;;;;;;22.20;12.30;;;5.80;99.90;;;;;;4958190;29;20504;-77
2021/12/16 07:13:29;;;;;;;26.20;13.90;;;5.80;99.90;;;;;;4955696;28;20552;-77
2021/12/16 07:15:58;;;;;;;23.23;13.40;;;5.80;99.90;;;;;;4954994;29;20464;-77
2021/12/16 07:18:25;;;;;;;24.07;13.63;;;5.80;99.90;;;;;;4947809;28;20501;-77
2021/12/16 07:20:52;;;;;;;25.30;13.67;;;5.80;99.90;;;;;;4951877;28;20544;-77
2021/12/16 07:23:20;;;;;;;25.83;13.80;;;5.80;99.90;;;;;;4946867;29;20473;-77
2021/12/16 07:25:47;;;;;;;21.60;13.20;;;5.80;99.90;;;;;;4945044;29;21013;-76
2021/12/16 07:28:16;;;;;;;25.70;12.80;;;5.80;99.90;;;;;;4944177;29;20533;-77
2021/12/16 07:30:46;;;;;;;21.97;12.90;;;5.80;99.90;;;;;;4944327;29;20509;-77
2021/12/16 07:33:13;;;;;;;24.10;13.20;;;5.80;99.90;;;;;;4944496;29;20536;-77
2021/12/16 07:35:42;;;;;;;22.83;13.47;;;5.80;99.90;;;;;;4945389;29;20528;-76
2021/12/16 07:38:09;;;;;;;26.40;13.70;;;5.80;99.90;;;;;;4946503;29;20589;-77
2021/12/16 07:40:39;;;;;;;22.73;12.50;;;5.70;99.90;;;;;;4945607;29;20469;-76
2021/12/16 07:45:57;;;;;;;28.20;13.10;;;5.70;99.90;;;;;;4937962;29;20438;-77
2021/12/16 07:48:27;;;;;;;24.00;13.80;;;5.70;99.90;;;;;;4945405;29;20496;-77
2021/12/16 07:50:57;;;;;;;26.20;14.80;;;5.70;99.90;;;;;;4959211;28;20508;-76
2021/12/16 07:53:27;;;;;;;26.07;14.20;;;5.70;99.90;;;;;;4962848;28;20444;-76
2021/12/16 07:55:54;;;;;;;27.33;15.10;;;5.70;99.90;;;;;;4961380;29;20472;-76
2021/12/16 07:58:23;;;;;;;23.70;13.37;;;5.70;99.90;;;;;;4960006;29;20587;-77
2021/12/16 08:00:51;;;;;;;23.20;13.70;;;5.80;99.90;;;;;;4958678;29;20476;-77
2021/12/16 08:03:20;;;;;;;24.53;15.30;;;5.80;99.90;;;;;;4959881;29;20551;-77
2021/12/16 08:05:53;;;;;;;26.13;14.53;;;5.70;99.90;;;;;;4960115;29;20901;-77
2021/12/16 08:08:20;;;;;;;30.37;16.07;;;5.70;99.90;;;;;;4958380;29;20846;-76
2021/12/16 08:10:47;;;;;;;22.67;14.33;;;5.70;99.90;;;;;;4960340;29;20507;-77
2021/12/16 08:13:14;;;;;;;24.70;13.80;;;5.70;99.90;;;;;;4959518;29;20492;-77
2021/12/16 08:15:42;;;;;;;24.80;15.03;;;5.80;99.90;;;;;;4959834;29;20453;-77
2021/12/16 08:18:09;;;;;;;26.87;15.17;;;5.70;99.90;;;;;;4959546;29;20587;-77
2021/12/16 08:20:37;;;;;;;26.70;14.77;;;5.70;99.90;;;;;;4959379;29;20564;-77
2021/12/16 08:23:04;;;;;;;24.67;14.30;;;5.80;99.90;;;;;;4959927;29;20484;-77
2021/12/16 08:25:32;;;;;;;28.13;15.00;;;5.70;99.90;;;;;;4960916;29;20489;-77
2021/12/16 08:28:03;;;;;;;31.00;15.67;;;5.70;99.90;;;;;;4961642;29;20539;-76
2021/12/16 08:30:33;;;;;;;24.10;14.70;;;5.70;99.90;;;;;;4954579;29;20456;-77
2021/12/16 08:33:04;;;;;;;22.60;13.13;;;5.80;99.90;;;;;;4959865;29;20491;-77
2021/12/16 08:35:32;;;;;;;24.27;14.73;;;5.70;99.90;;;;;;4959843;29;20484;-77
2021/12/16 08:38:01;;;;;;;25.17;14.40;;;5.70;99.90;;;;;;4959658;29;20499;-77
2021/12/16 08:40:29;;;;;;;28.17;16.03;;;5.70;99.90;;;;;;4959690;29;20520;-77
2021/12/16 08:42:56;;;;;;;23.90;13.93;;;5.70;99.90;;;;;;4959132;28;20544;-76
2021/12/16 08:45:27;;;;;;;26.40;14.60;;;5.70;99.90;;;;;;4960346;29;20495;-77
2021/12/16 08:47:56;;;;;;;26.70;15.40;;;5.80;99.90;;;;;;4961455;28;20516;-77
2021/12/16 08:50:28;;;;;;;24.07;14.40;;;5.80;99.90;;;;;;4960030;29;20894;-77
2021/12/16 08:52:56;;;;;;;23.07;14.43;;;5.80;99.90;;;;;;4960979;29;20554;-77
2021/12/16 08:55:24;;;;;;;26.17;14.10;;;5.80;99.90;;;;;;4955712;29;20866;-77
2021/12/16 08:57:53;;;;;;;23.40;13.37;;;5.80;99.90;;;;;;4959608;29;20583;-77
2021/12/16 09:00:23;;;;;;;24.87;13.40;;;5.80;99.90;;;;;;4959152;29;20991;-77
2021/12/16 09:02:50;;;;;;;23.00;13.10;;;5.90;99.90;;;;;;4954274;29;20488;-77
2021/12/16 09:05:17;;;;;;;24.03;14.23;;;5.90;99.90;;;;;;4947846;29;20482;-77
2021/12/16 09:07:48;;;;;;;22.17;13.27;;;5.80;99.90;;;;;;4939738;29;20492;-77
2021/12/16 09:10:20;;;;;;;22.13;12.60;;;5.90;99.90;;;;;;4939606;29;20464;-77
2021/12/16 09:12:53;;;;;;;21.70;13.80;;;5.90;99.90;;;;;;4939692;29;20457;-77
2021/12/16 09:15:23;;;;;;;24.27;12.90;;;5.90;99.90;;;;;;4940211;29;20473;-77
2021/12/16 09:17:51;;;;;;;23.53;13.70;;;5.90;99.90;;;;;;4937271;29;20604;-71
2021/12/16 09:20:18;;;;;;;30.43;13.97;;;6.00;99.90;;;;;;4940655;29;20507;-77
2021/12/16 09:22:45;;;;;;;23.67;13.80;;;6.00;99.90;;;;;;4959493;29;20941;-76
2021/12/16 09:25:13;;;;;;;25.23;13.60;;;6.00;99.90;;;;;;4957823;29;20485;-77
2021/12/16 09:27:41;;;;;;;30.27;15.80;;;6.00;99.90;;;;;;4949749;29;21025;-76
2021/12/16 09:30:14;;;;;;;27.17;15.37;;;6.10;99.90;;;;;;4946408;29;20460;-76
2021/12/16 09:32:41;;;;;;;24.13;13.43;;;6.10;99.90;;;;;;4943516;29;20492;-77
2021/12/16 09:35:10;;;;;;;22.67;13.20;;;6.10;99.90;;;;;;4941075;29;20496;-77
2021/12/16 09:37:39;;;;;;;20.00;12.60;;;6.10;99.90;;;;;;4940720;29;20896;-76
2021/12/16 09:40:10;;;;;;;21.17;13.33;;;6.10;99.90;;;;;;4939942;29;20484;-68
2021/12/16 09:42:37;;;;;;;23.97;14.07;;;6.10;99.90;;;;;;4935366;29;20998;-68
2021/12/16 09:45:05;;;;;;;21.03;12.77;;;6.20;99.90;;;;;;4935679;29;20454;-68
2021/12/16 09:47:34;;;;;;;22.07;13.50;;;6.20;99.90;;;;;;4937569;29;20442;-77
2021/12/16 09:50:01;;;;;;;27.37;13.37;;;6.20;99.90;;;;;;4937044;29;20545;-77
2021/12/16 09:52:28;;;;;;;21.37;13.40;;;6.20;99.90;;;;;;4935708;29;21021;-76
2021/12/16 09:54:55;;;;;;;24.60;14.43;;;6.20;99.90;;;;;;4935884;29;20493;-76
2021/12/16 09:57:22;;;;;;;24.77;13.37;;;6.20;99.90;;;;;;4936015;29;20574;-76
2021/12/16 09:59:49;;;;;;;26.83;13.37;;;6.20;99.90;;;;;;4936031;29;20501;-77
2021/12/16 10:02:20;;;;;;;24.27;15.10;;;6.20;99.90;;;;;;4939120;29;20491;-77
2021/12/16 10:04:49;;;;;;;23.23;13.50;;;6.20;99.90;;;;;;4947672;28;20908;-76
2021/12/16 10:07:18;;;;;;;26.17;14.20;;;6.30;99.90;;;;;;4950376;29;20480;-77
2021/12/16 10:09:48;;;;;;;21.23;13.70;;;6.30;99.90;;;;;;4955920;29;20489;-77
2021/12/16 10:12:20;;;;;;;23.53;13.97;;;6.30;99.90;;;;;;4952832;28;20537;-76
2021/12/16 10:15:04;;;;;;;23.53;13.37;;;6.40;99.90;;;;;;4934549;29;20548;-76
2021/12/16 10:17:33;;;;;;;19.70;13.60;;;6.40;99.90;;;;;;4935228;29;21284;-77
2021/12/16 10:20:09;;;;;;;25.00;12.93;;;6.40;99.90;;;;;;4936253;29;20541;-77
2021/12/16 10:22:40;;;;;;;21.37;12.67;;;6.40;99.90;;;;;;4936276;29;20905;-77
2021/12/16 10:25:21;;;;;;;23.03;13.20;;;6.50;99.90;;;;;;4935441;29;20462;-77
2021/12/16 10:27:58;;;;;;;23.87;14.00;;;6.50;99.90;;;;;;4935015;29;20450;-77
2021/12/16 10:30:26;;;;;;;21.90;12.77;;;6.50;99.90;;;;;;4934487;29;20520;-77
2021/12/16 10:32:54;;;;;;;18.90;12.57;;;6.50;99.90;;;;;;4934731;29;20464;-77
2021/12/16 10:35:33;;;;;;;20.80;12.80;;;6.50;99.90;;;;;;4935159;29;20524;-77
2021/12/16 10:38:04;;;;;;;20.93;12.93;;;6.50;99.90;;;;;;4935811;29;20524;-77
2021/12/16 10:40:40;;;;;;;21.23;12.20;;;6.50;99.90;;;;;;4934830;29;20464;-77
2021/12/16 10:43:11;;;;;;;22.80;13.57;;;6.50;99.90;;;;;;4935132;29;20465;-76
2021/12/16 10:45:43;;;;;;;18.80;12.13;;;6.50;99.90;;;;;;4934298;29;20549;-76
2021/12/16 10:48:18;;;;;;;22.67;12.07;;;6.50;99.90;;;;;;4934665;29;20505;-77
2021/12/16 10:51:05;;;;;;;24.80;12.43;;;6.50;99.90;;;;;;4936370;29;20472;-76
2021/12/16 10:54:16;;;;;;;20.83;12.07;;;6.50;99.90;;;;;;4937312;29;20458;-76
2021/12/16 10:56:48;;;;;;;21.53;11.70;;;6.50;99.90;;;;;;4942510;29;20445;-76
2021/12/16 10:59:18;;;;;;;19.60;11.93;;;6.50;99.90;;;;;;4942596;29;20914;-76
2021/12/16 11:02:06;;;;;;;17.37;10.93;;;6.50;99.90;;;;;;4952878;28;20512;-77
2021/12/16 11:04:39;;;;;;;19.90;12.00;;;6.60;99.90;;;;;;4939936;29;20481;-78
2021/12/16 11:07:12;;;;;;;18.83;11.73;;;6.60;99.90;;;;;;4945215;28;20512;-77
2021/12/16 11:09:44;;;;;;;18.53;11.77;;;6.70;99.90;;;;;;4942984;29;20549;-75
2021/12/16 11:12:18;;;;;;;21.13;11.93;;;6.70;99.90;;;;;;4943933;29;20492;-75
2021/12/16 11:14:50;;;;;;;20.00;12.93;;;6.70;99.90;;;;;;4934676;29;20524;-74
2021/12/16 11:17:20;;;;;;;20.80;12.57;;;6.70;99.90;;;;;;4966253;23;20551;-75
2021/12/16 11:19:55;;;;;;;26.30;12.33;;;6.80;99.90;;;;;;4951704;29;21072;-76
2021/12/16 11:22:25;;;;;;;18.20;11.67;;;6.80;99.90;;;;;;4952092;29;20468;-75
2021/12/16 11:24:54;;;;;;;22.70;11.50;;;6.80;99.90;;;;;;4950860;29;20547;-74
2021/12/16 11:27:32;;;;;;;20.10;12.33;;;6.80;99.90;;;;;;4933010;29;20488;-75
2021/12/16 11:30:20;;;;;;;18.70;11.77;;;6.80;99.90;;;;;;4934742;29;20540;-75
2021/12/16 11:32:49;;;;;;;20.60;11.43;;;6.80;99.90;;;;;;4936886;29;20869;-76
2021/12/16 11:35:33;;;;;;;19.60;11.90;;;6.90;99.90;;;;;;4936973;29;20504;-76
2021/12/16 11:38:13;;;;;;;17.03;10.80;;;6.90;99.90;;;;;;4952873;29;20505;-74
2021/12/16 11:40:53;;;;;;;19.10;12.10;;;6.90;99.90;;;;;;4955401;29;20487;-74
2021/12/16 11:43:39;;;;;;;19.63;11.17;;;6.90;99.90;;;;;;4955227;29;20543;-75
2021/12/16 11:46:12;;;;;;;19.47;11.80;;;6.90;99.90;;;;;;4955371;29;20919;-75
2021/12/16 11:48:40;;;;;;;19.80;12.00;;;6.90;99.90;;;;;;4953794;28;20504;-75
2021/12/16 11:51:11;;;;;;;20.17;11.63;;;7.00;99.90;;;;;;4955107;29;20453;-76
2021/12/16 11:53:44;;;;;;;20.93;11.83;;;6.90;99.90;;;;;;4955951;29;20897;-75
2021/12/16 11:56:12;;;;;;;19.27;12.40;;;6.90;99.90;;;;;;4955426;29;20488;-76
2021/12/16 11:58:42;;;;;;;16.43;11.43;;;6.90;99.90;;;;;;4956106;29;20555;-75
2021/12/16 12:01:24;;;;;;;19.77;12.20;;;6.90;99.90;;;;;;4956610;29;20468;-76
2021/12/16 12:03:51;;;;;;;21.70;12.50;;;7.00;99.90;;;;;;4956585;29;20471;-76
2021/12/16 12:06:21;;;;;;;20.03;12.07;;;7.00;99.90;;;;;;4956351;29;20543;-76
2021/12/16 12:08:51;;;;;;;19.03;12.40;;;7.00;99.90;;;;;;4955878;29;21039;-76
2021/12/16 12:11:21;;;;;;;17.23;11.20;;;7.10;99.90;;;;;;4956214;28;20453;-75
2021/12/16 12:13:50;;;;;;;16.97;11.53;;;7.10;99.90;;;;;;4956098;29;20548;-76
2021/12/16 12:16:19;;;;;;;18.27;10.87;;;7.10;99.90;;;;;;4956256;29;20457;-75
2021/12/16 12:18:49;;;;;;;17.40;11.30;;;7.10;99.90;;;;;;4955596;28;20580;-74
2021/12/16 12:21:38;;;;;;;18.90;11.97;;;7.20;99.90;;;;;;4955847;28;20936;-75
2021/12/16 12:24:13;;;;;;;19.70;12.50;;;7.30;99.90;;;;;;4955989;28;20543;-75
2021/12/16 12:26:57;;;;;;;19.50;12.57;;;7.30;99.90;;;;;;4956122;28;20472;-75
2021/12/16 12:29:28;;;;;;;19.17;12.40;;;7.40;99.90;;;;;;4953601;28;20476;-72
2021/12/16 12:31:58;;;;;;;19.23;11.60;;;7.30;99.90;;;;;;4954920;29;20456;-73
2021/12/16 12:34:26;;;;;;;19.77;11.77;;;7.30;99.90;;;;;;4949012;29;20438;-73
2021/12/16 12:36:55;;;;;;;19.90;11.80;;;7.40;99.90;;;;;;4937168;29;20450;-74
2021/12/16 12:39:27;;;;;;;19.47;12.70;;;7.50;99.90;;;;;;4935094;29;20529;-74
2021/12/16 12:41:55;;;;;;;21.67;13.17;;;7.50;99.90;;;;;;4934843;29;20521;-73
2021/12/16 12:44:23;;;;;;;19.80;12.40;;;7.50;99.90;;;;;;4935545;29;20490;-74
2021/12/16 12:46:53;;;;;;;17.70;12.27;;;7.60;99.90;;;;;;4935363;29;20513;-74
2021/12/16 12:49:25;;;;;;;19.30;11.83;;;7.60;99.90;;;;;;4934299;29;20536;-74
2021/12/16 12:52:04;;;;;;;19.43;12.40;;;7.60;99.90;;;;;;4935363;29;20493;-74
2021/12/16 12:54:35;;;;;;;20.33;11.70;;;7.50;99.90;;;;;;4935191;29;20461;-74
2021/12/16 12:57:19;;;;;;;20.57;12.37;;;7.50;99.90;;;;;;4936318;29;20573;-74
2021/12/16 12:59:47;;;;;;;23.83;12.60;;;7.60;99.90;;;;;;4942708;29;20535;-74
2021/12/16 13:02:17;;;;;;;26.33;11.60;;;7.50;99.90;;;;;;4955482;28;20493;-75
2021/12/16 13:04:48;;;;;;;19.83;13.00;;;7.60;99.90;;;;;;4954881;28;20457;-74
2021/12/16 13:07:32;;;;;;;27.80;12.93;;;7.60;99.90;;;;;;4952501;28;20593;-74
2021/12/16 13:10:05;;;;;;;21.03;12.60;;;7.60;99.90;;;;;;4935834;29;20532;-74
2021/12/16 13:12:40;;;;;;;21.57;13.43;;;7.70;99.90;;;;;;4935802;29;20871;-74
2021/12/16 13:15:33;;;;;;;20.67;12.33;;;7.70;99.90;;;;;;4946831;29;20452;-74
2021/12/16 13:23:53;;;;;;;23.10;13.10;;;7.80;99.90;;;;;;4955054;29;20503;-75
2021/12/16 13:26:33;;;;;;;18.80;11.97;;;7.80;99.90;;;;;;4955120;28;20468;-75
2021/12/16 13:29:21;;;;;;;21.40;11.30;;;7.80;99.90;;;;;;4954487;28;20499;-72
2021/12/16 13:32:07;;;;;;;16.03;10.87;;;7.90;99.90;;;;;;4954802;29;20948;-72
2021/12/16 13:34:41;;;;;;;23.70;13.70;;;7.90;99.90;;;;;;4954739;29;20456;-74
2021/12/16 13:37:20;;;;;;;18.37;11.53;;;7.90;99.90;;;;;;4954672;28;20488;-74
2021/12/16 13:39:53;;;;;;;22.40;12.43;;;8.00;99.90;;;;;;4954399;29;20968;-75
2021/12/16 13:42:24;;;;;;;19.40;11.60;;;8.00;99.90;;;;;;4954848;29;20503;-74
2021/12/16 13:45:00;;;;;;;24.07;12.47;;;8.00;99.90;;;;;;4954630;29;20548;-74
2021/12/16 13:47:44;;;;;;;19.77;12.40;;;8.00;99.90;;;;;;4954515;28;20477;-74
2021/12/16 14:01:58;;;;;;;21.33;12.23;;;8.10;99.90;;;;;;4940590;28;20438;-74
2021/12/16 14:04:42;;;;;;;24.07;11.53;;;8.00;99.90;;;;;;4943260;29;20454;-74
2021/12/16 14:07:29;;;;;;;19.47;12.43;;;8.00;99.90;;;;;;4949396;29;20480;-74
2021/12/16 14:10:05;;;;;;;18.40;10.63;;;8.10;99.90;;;;;;4954147;29;20453;-73
2021/12/16 14:15:21;;;;;;;21.70;12.97;;;8.10;99.90;;;;;;4949842;28;20448;-75
2021/12/16 14:17:57;;;;;;;19.13;11.73;;;8.10;99.90;;;;;;4939842;29;20893;-74
2021/12/16 14:24:07;;;;;;;17.77;10.43;;;8.20;99.90;;;;;;4953914;29;20444;-74
2021/12/16 14:26:49;;;;;;;15.67;10.60;;;8.20;99.90;;;;;;4953712;28;20868;-74
2021/12/16 14:35:16;;;;;;;15.67;10.43;;;8.20;99.90;;;;;;4946560;29;20493;-75
2021/12/16 14:38:04;;;;;;;16.50;9.10;;;8.20;99.90;;;;;;4953626;28;20572;-72
2021/12/16 14:41:03;;;;;;;17.30;9.43;;;8.20;99.90;;;;;;4953627;29;20488;-73
2021/12/16 14:43:39;;;;;;;17.17;10.00;;;8.20;99.90;;;;;;4953364;28;20460;-73
2021/12/16 14:46:17;;;;;;;27.60;14.80;;;8.20;99.90;;;;;;4953766;28;20467;-72
2021/12/16 14:48:48;;;;;;;33.53;16.93;;;8.20;99.90;;;;;;4953380;28;20472;-76
2021/12/16 14:51:38;;;;;;;26.37;15.37;;;8.20;99.90;;;;;;4953871;28;20460;-75
2021/12/16 14:54:10;;;;;;;20.67;14.27;;;8.20;99.90;;;;;;4952003;28;20482;-75
2021/12/16 14:56:42;;;;;;;20.17;11.90;;;8.20;99.90;;;;;;4952878;29;20449;-76
2021/12/16 14:59:13;;;;;;;18.73;11.37;;;8.10;99.90;;;;;;4953368;29;20551;-76
2021/12/16 15:01:43;;;;;;;18.60;12.00;;;8.10;99.90;;;;;;4953771;29;20453;-75
2021/12/16 15:04:15;;;;;;;18.50;10.53;;;8.10;99.90;;;;;;4955980;28;20480;-76
2021/12/16 15:06:49;;;;;;;21.40;10.97;;;8.10;99.90;;;;;;4957467;28;20456;-75
2021/12/16 15:09:22;;;;;;;16.67;11.63;;;8.00;99.90;;;;;;4957534;29;20461;-75
2021/12/16 15:11:56;;;;;;;20.73;11.70;;;8.00;99.90;;;;;;4957351;28;20981;-76
2021/12/16 15:14:35;;;;;;;14.70;10.40;;;8.00;99.90;;;;;;4957461;28;20502;-75
2021/12/16 15:17:10;;;;;;;17.87;10.07;;;8.00;99.90;;;;;;4957139;28;20496;-69
2021/12/16 15:37:04;;;;;;;18.87;10.63;;;7.60;99.90;;;;;;4933626;29;20453;-74
2021/12/16 15:39:48;;;;;;;15.30;10.00;;;7.60;99.90;;;;;;4951089;28;20512;-75
2021/12/16 15:45:07;;;;;;;17.40;11.17;;;7.50;99.90;;;;;;4956120;29;20436;-75
2021/12/16 15:47:39;;;;;;;19.20;11.80;;;7.50;99.90;;;;;;4956015;28;20560;-75
2021/12/16 15:50:08;;;;;;;18.70;11.10;;;7.50;99.90;;;;;;4939214;29;20867;-75
2021/12/16 15:52:41;;;;;;;17.50;10.60;;;7.50;99.90;;;;;;4939129;29;20531;-75
2021/12/16 15:55:14;;;;;;;16.47;10.30;;;7.50;99.90;;;;;;4936748;29;20536;-75
2021/12/16 15:57:41;;;;;;;16.37;10.50;;;7.50;99.90;;;;;;4936730;29;20552;-75
2021/12/16 16:00:12;;;;;;;15.00;11.03;;;7.50;99.90;;;;;;4937352;29;20576;-75
2021/12/16 16:02:39;;;;;;;21.63;12.33;;;7.40;99.90;;;;;;4940118;29;20537;-76
2021/12/16 16:05:07;;;;;;;30.07;18.10;;;7.40;99.90;;;;;;4941448;29;20884;-76
2021/12/16 16:07:34;;;;;;;29.33;17.20;;;7.40;99.90;;;;;;4953585;29;20556;-76
2021/12/16 16:10:03;;;;;;;22.37;15.23;;;7.40;99.90;;;;;;4937401;29;20525;-76
2021/12/16 16:12:32;;;;;;;28.87;17.60;;;7.40;99.90;;;;;;4936523;29;20489;-77
2021/12/16 16:15:15;;;;;;;25.23;16.00;;;7.40;99.90;;;;;;4935691;29;20482;-75
2021/12/16 16:17:55;;;;;;;21.80;13.97;;;7.50;99.90;;;;;;4936004;29;20536;-75
2021/12/16 16:20:28;;;;;;;23.00;15.43;;;7.40;99.90;;;;;;4935885;29;20496;-76
2021/12/16 16:22:56;;;;;;;19.57;14.57;;;7.30;99.90;;;;;;4936330;29;20469;-76
2021/12/16 16:25:24;;;;;;;21.60;15.50;;;7.30;99.90;;;;;;4942512;29;20457;-76
2021/12/16 16:27:52;;;;;;;29.50;16.83;;;7.30;99.90;;;;;;4954847;29;20476;-76
2021/12/16 16:30:20;;;;;;;27.93;17.07;;;7.30;99.90;;;;;;4944404;29;20488;-76
2021/12/16 16:33:05;;;;;;;23.20;12.90;;;7.20;99.90;;;;;;4936252;29;20458;-75
2021/12/16 16:35:33;;;;;;;22.03;12.53;;;7.30;99.90;;;;;;4935899;29;20482;-75
2021/12/16 16:38:11;;;;;;;20.33;12.43;;;7.30;99.90;;;;;;4953291;29;20500;-76
2021/12/16 16:40:43;;;;;;;26.87;12.83;;;7.20;99.90;;;;;;4955098;28;20531;-76
2021/12/16 16:43:26;;;;;;;19.87;13.43;;;7.20;99.90;;;;;;4956297;29;20912;-76
2021/12/16 16:45:56;;;;;;;23.23;13.77;;;7.20;99.90;;;;;;4955795;29;20543;-76
2021/12/16 16:51:09;;;;;;;18.90;12.97;;;7.20;99.90;;;;;;4955190;28;20824;-76
2021/12/16 16:53:58;;;;;;;24.53;15.10;;;7.30;99.90;;;;;;4955966;28;20520;-76
2021/12/16 16:56:47;;;;;;;19.77;14.53;;;7.30;99.90;;;;;;4955674;28;20504;-77
2021/12/16 16:59:26;;;;;;;19.43;13.77;;;7.10;99.90;;;;;;4955567;29;20457;-76
2021/12/16 17:01:53;;;;;;;20.37;14.37;;;7.10;99.90;;;;;;4955752;28;20560;-77
2021/12/16 17:04:20;;;;;;;23.17;14.87;;;7.00;99.90;;;;;;4955814;29;20556;-76
2021/12/16 17:06:56;;;;;;;24.97;14.90;;;7.00;99.90;;;;;;4955580;28;20460;-69
2021/12/16 17:09:24;;;;;;;22.33;14.00;;;6.90;99.90;;;;;;4950796;29;20450;-70
2021/12/16 17:11:55;;;;;;;16.20;11.17;;;6.80;99.90;;;;;;4935961;29;21030;-76
2021/12/16 17:14:34;;;;;;;18.10;12.40;;;6.70;99.90;;;;;;4936205;29;20457;-76
2021/12/16 17:17:23;;;;;;;18.80;12.23;;;6.70;99.90;;;;;;4935903;29;20482;-75
2021/12/16 17:19:57;;;;;;;20.73;13.30;;;6.60;99.90;;;;;;4942004;29;20919;-75
2021/12/16 17:22:28;;;;;;;21.03;12.83;;;6.60;99.90;;;;;;4943508;29;20440;-75
2021/12/16 17:24:55;;;;;;;24.43;13.13;;;6.60;99.90;;;;;;4939255;29;20941;-75
2021/12/16 17:27:26;;;;;;;16.97;12.23;;;6.60;99.90;;;;;;4951072;28;20477;-75
2021/12/16 17:29:55;;;;;;;18.27;12.43;;;6.60;99.90;;;;;;4951642;29;20448;-75
2021/12/16 17:32:25;;;;;;;20.13;13.17;;;6.50;99.90;;;;;;4942303;29;20541;-75
2021/12/16 17:34:54;;;;;;;28.50;18.07;;;6.50;99.90;;;;;;4935836;29;20501;-75
2021/12/16 17:37:24;;;;;;;28.53;18.50;;;6.60;99.90;;;;;;4935666;29;20505;-75
2021/12/16 17:39:55;;;;;;;31.70;18.67;;;6.60;99.90;;;;;;4952432;29;20489;-75
2021/12/16 17:42:31;;;;;;;26.33;17.77;;;6.60;99.90;;;;;;4954992;29;20441;-74
2021/12/16 17:45:00;;;;;;;25.87;16.93;;;6.50;99.90;;;;;;4935633;29;20457;-74
2021/12/16 17:47:31;;;;;;;27.50;17.70;;;6.40;99.90;;;;;;4935265;29;20488;-75
2021/12/16 17:49:58;;;;;;;28.13;18.03;;;6.40;99.90;;;;;;4935404;29;20253;-77
2021/12/16 17:52:28;;;;;;;30.43;17.70;;;6.40;99.90;;;;;;4935649;29;20540;-76
2021/12/16 17:54:58;;;;;;;24.80;16.80;;;6.40;99.90;;;;;;4935787;29;20513;-80
2021/12/16 17:57:30;;;;;;;22.90;16.80;;;6.30;99.90;;;;;;4935390;29;21171;-76
2021/12/16 17:59:59;;;;;;;24.63;16.60;;;6.20;99.90;;;;;;4935054;29;20493;-76
2021/12/16 18:02:28;;;;;;;24.70;14.93;;;6.20;99.90;;;;;;4935701;29;20492;-77
2021/12/16 18:04:59;;;;;;;23.37;16.30;;;6.20;99.90;;;;;;4935555;29;20557;-77
2021/12/16 18:07:30;;;;;;;23.17;16.00;;;6.10;99.90;;;;;;4935237;29;21049;-76
2021/12/16 18:09:58;;;;;;;19.50;12.87;;;6.10;99.90;;;;;;4934917;29;20466;-76
2021/12/16 18:12:29;;;;;;;20.20;14.40;;;6.00;99.90;;;;;;4935371;29;20545;-76
2021/12/16 18:15:02;;;;;;;26.47;17.20;;;6.00;99.90;;;;;;4935405;29;20446;-76
2021/12/16 18:17:33;;;;;;;27.10;16.20;;;6.00;99.90;;;;;;4951058;28;20508;-77
2021/12/16 18:20:05;;;;;;;28.60;18.20;;;6.00;99.90;;;;;;4954478;29;20442;-76
2021/12/16 18:22:36;;;;;;;29.60;18.30;;;6.00;99.90;;;;;;4954463;29;20536;-76
2021/12/16 18:25:14;;;;;;;26.00;16.67;;;5.90;99.90;;;;;;4953215;29;20470;-77
2021/12/16 18:27:46;;;;;;;27.13;17.30;;;5.90;99.90;;;;;;4953333;28;20556;-76
2021/12/16 18:30:18;;;;;;;26.40;17.70;;;5.90;99.90;;;;;;4953536;29;20445;-77
2021/12/16 18:32:49;;;;;;;27.47;18.07;;;5.80;99.90;;;;;;4953188;29;20481;-77
2021/12/16 18:35:18;;;;;;;27.47;18.20;;;5.80;99.90;;;;;;4953180;29;20475;-77
2021/12/16 18:37:48;;;;;;;28.27;17.60;;;5.80;99.90;;;;;;4952897;28;20556;-78
2021/12/16 18:40:18;;;;;;;24.07;17.00;;;5.70;99.90;;;;;;4953516;29;20464;-77
2021/12/16 18:42:46;;;;;;;23.90;15.53;;;5.70;99.90;;;;;;4954075;29;20477;-77
2021/12/16 18:45:18;;;;;;;23.57;16.67;;;5.60;99.90;;;;;;4954023;28;20484;-77
2021/12/16 18:47:58;;;;;;;22.70;15.33;;;5.60;99.90;;;;;;4953980;28;20508;-78
2021/12/16 18:50:38;;;;;;;26.63;16.93;;;5.50;99.90;;;;;;4953849;28;20456;-78
2021/12/16 18:55:57;;;;;;;27.13;16.77;;;5.40;99.90;;;;;;4953840;29;20448;-78
2021/12/16 18:58:26;;;;;;;27.97;17.37;;;5.40;99.90;;;;;;4953659;28;21012;-78
2021/12/16 19:00:56;;;;;;;23.07;15.20;;;5.30;99.90;;;;;;4953486;28;20493;-78
2021/12/16 19:03:24;;;;;;;27.10;17.87;;;5.30;99.90;;;;;;4953864;28;20543;-71
2021/12/16 19:05:51;;;;;;;29.90;18.70;;;5.30;99.90;;;;;;4952758;28;20536;-72
2021/12/16 19:08:18;;;;;;;27.40;17.60;;;5.20;99.90;;;;;;4943236;28;20567;-71
2021/12/16 19:10:46;;;;;;;30.03;18.73;;;5.20;99.90;;;;;;4933171;29;20454;-78